createdAt,value
2018-11-03T00:00:04.996Z,0
2018-11-03T00:01:04.724Z,0
2018-11-03T00:02:04.452Z,0
2018-11-03T00:03:04.411Z,0
2018-11-03T00:04:04.685Z,0
2018-11-03T00:05:04.398Z,0
2018-11-03T00:06:04.386Z,0
2018-11-03T00:07:04.657Z,0
2018-11-03T00:08:04.621Z,0
2018-11-03T00:09:04.611Z,0
2018-11-03T00:10:04.066Z,0
2018-11-03T00:11:04.324Z,0
2018-11-03T00:12:04.589Z,0
2018-11-03T00:13:04.556Z,0
2018-11-03T00:14:04.284Z,0
2018-11-03T00:15:04.597Z,0
2018-11-03T00:16:03.986Z,0
2018-11-03T00:17:04.537Z,0
2018-11-03T00:18:04.526Z,0
2018-11-03T00:19:03.681Z,0
2018-11-03T00:20:04.471Z,0
2018-11-03T00:21:04.480Z,0
2018-11-03T00:22:04.488Z,0
2018-11-03T00:23:04.492Z,0
2018-11-03T00:24:04.599Z,0
2018-11-03T00:25:04.465Z,0
2018-11-03T00:26:04.130Z,0
2018-11-03T00:27:04.395Z,0
2018-11-03T00:28:04.381Z,0
2018-11-03T00:29:03.823Z,0
2018-11-03T00:30:04.063Z,0
2018-11-03T00:31:04.322Z,0
2018-11-03T00:32:04.300Z,0
2018-11-03T00:33:04.042Z,0
2018-11-03T00:34:04.849Z,0
2018-11-03T00:35:04.634Z,0
2018-11-03T00:36:04.258Z,0
2018-11-03T00:37:03.992Z,0
2018-11-03T00:38:04.231Z,0
2018-11-03T00:39:04.219Z,0
2018-11-03T00:40:03.951Z,0
2018-11-03T00:41:04.198Z,0
2018-11-03T00:42:03.930Z,0
2018-11-03T00:43:04.560Z,0
2018-11-03T00:44:04.179Z,0
2018-11-03T00:45:04.493Z,0
2018-11-03T00:46:04.416Z,0
2018-11-03T00:47:04.131Z,0
2018-11-03T00:48:04.100Z,0
2018-11-03T00:49:03.883Z,0
2018-11-03T00:50:03.700Z,0
2018-11-03T00:51:04.072Z,0
2018-11-03T00:52:04.048Z,0
2018-11-03T00:53:04.050Z,0
2018-11-03T00:54:04.523Z,0
2018-11-03T00:55:03.775Z,0
2018-11-03T00:56:03.764Z,0
2018-11-03T00:57:03.723Z,0
2018-11-03T00:58:04.249Z,0
2018-11-03T00:59:03.987Z,0
2018-11-03T01:00:04.211Z,0
2018-11-03T01:01:03.671Z,0
2018-11-03T01:02:03.668Z,0
2018-11-03T01:03:03.392Z,0
2018-11-03T01:04:03.905Z,0
2018-11-03T01:05:03.361Z,0
2018-11-03T01:06:03.657Z,0
2018-11-03T01:07:03.599Z,0
2018-11-03T01:08:03.854Z,0
2018-11-03T01:09:03.832Z,0
2018-11-03T01:10:03.837Z,0
2018-11-03T01:11:03.823Z,0
2018-11-03T01:12:03.533Z,0
2018-11-03T01:13:03.790Z,0
2018-11-03T01:14:03.687Z,0
2018-11-03T01:15:04.068Z,0
2018-11-03T01:16:03.483Z,0
2018-11-03T01:17:03.207Z,0
2018-11-03T01:18:03.539Z,0
2018-11-03T01:19:03.719Z,0
2018-11-03T01:20:03.963Z,0
2018-11-03T01:21:03.688Z,0
2018-11-03T01:22:03.670Z,0
2018-11-03T01:23:03.652Z,0
2018-11-03T01:24:03.128Z,0
2018-11-03T01:25:03.374Z,0
2018-11-03T01:26:03.365Z,0
2018-11-03T01:27:03.617Z,0
2018-11-03T01:28:03.330Z,0
2018-11-03T01:29:03.586Z,0
2018-11-03T01:30:03.840Z,0
2018-11-03T01:31:03.298Z,0
2018-11-03T01:32:03.812Z,0
2018-11-03T01:33:03.264Z,0
2018-11-03T01:34:03.449Z,0
2018-11-03T01:35:04.086Z,0
2018-11-03T01:36:02.699Z,0
2018-11-03T01:37:03.749Z,0
2018-11-03T01:38:03.472Z,0
2018-11-03T01:39:02.661Z,0
2018-11-03T01:40:03.442Z,0
2018-11-03T01:41:02.906Z,0
2018-11-03T01:42:03.143Z,0
2018-11-03T01:43:03.412Z,0
2018-11-03T01:44:03.666Z,0
2018-11-03T01:45:02.888Z,0
2018-11-03T01:46:03.367Z,0
2018-11-03T01:47:03.349Z,0
2018-11-03T01:48:03.329Z,0
2018-11-03T01:49:03.328Z,0
2018-11-03T01:50:03.312Z,0
2018-11-03T01:51:03.306Z,0
2018-11-03T01:52:03.310Z,0
2018-11-03T01:53:03.531Z,0
2018-11-03T01:54:03.470Z,0
2018-11-03T01:55:02.986Z,0
2018-11-03T01:56:03.503Z,0
2018-11-03T01:57:03.216Z,0
2018-11-03T01:58:03.208Z,0
2018-11-03T01:59:03.505Z,0
2018-11-03T02:00:03.181Z,0
2018-11-03T02:01:03.173Z,0
2018-11-03T02:02:02.935Z,0
2018-11-03T02:03:03.162Z,0
2018-11-03T02:04:03.336Z,0
2018-11-03T02:05:03.201Z,0
2018-11-03T02:06:03.097Z,0
2018-11-03T02:07:03.114Z,0
2018-11-03T02:08:03.109Z,0
2018-11-03T02:09:03.061Z,0
2018-11-03T02:10:02.789Z,0
2018-11-03T02:11:02.770Z,0
2018-11-03T02:12:03.039Z,0
2018-11-03T02:13:03.276Z,0
2018-11-03T02:14:02.733Z,0
2018-11-03T02:15:03.035Z,0
2018-11-03T02:16:02.981Z,0
2018-11-03T02:17:02.702Z,0
2018-11-03T02:18:02.948Z,0
2018-11-03T02:19:02.936Z,0
2018-11-03T02:20:02.392Z,0
2018-11-03T02:21:02.686Z,0
2018-11-03T02:22:03.303Z,0
2018-11-03T02:23:02.884Z,0
2018-11-03T02:24:02.868Z,0
2018-11-03T02:25:03.253Z,0
2018-11-03T02:26:03.446Z,0
2018-11-03T02:27:02.598Z,0
2018-11-03T02:28:02.552Z,0
2018-11-03T02:29:02.535Z,0
2018-11-03T02:30:02.257Z,0
2018-11-03T02:31:02.772Z,0
2018-11-03T02:32:34.335Z,0
2018-11-03T02:33:03.014Z,0
2018-11-03T02:34:02.466Z,0
2018-11-03T02:35:02.907Z,0
2018-11-03T02:36:02.361Z,0
2018-11-03T02:37:02.707Z,0
2018-11-03T02:38:02.949Z,0
2018-11-03T02:39:02.668Z,0
2018-11-03T02:40:02.400Z,0
2018-11-03T02:41:02.114Z,0
2018-11-03T02:42:02.648Z,0
2018-11-03T02:43:02.874Z,0
2018-11-03T02:44:02.882Z,0
2018-11-03T02:45:03.352Z,0
2018-11-03T02:46:02.938Z,0
2018-11-03T02:47:02.035Z,0
2018-11-03T02:48:02.593Z,0
2018-11-03T02:49:02.535Z,0
2018-11-03T02:50:02.802Z,0
2018-11-03T02:51:02.239Z,0
2018-11-03T02:52:02.502Z,0
2018-11-03T02:53:02.751Z,0
2018-11-03T02:54:02.215Z,0
2018-11-03T02:55:02.948Z,0
2018-11-03T02:56:02.153Z,0
2018-11-03T02:57:02.178Z,0
2018-11-03T02:58:02.682Z,0
2018-11-03T02:59:02.181Z,0
2018-11-03T03:00:02.381Z,0
2018-11-03T03:01:02.123Z,0
2018-11-03T03:02:02.358Z,0
2018-11-03T03:03:02.125Z,0
2018-11-03T03:04:02.331Z,0
2018-11-03T03:05:01.800Z,0
2018-11-03T03:06:02.580Z,0
2018-11-03T03:07:02.284Z,0
2018-11-03T03:08:02.285Z,0
2018-11-03T03:09:02.003Z,0
2018-11-03T03:10:02.508Z,0
2018-11-03T03:11:02.503Z,0
2018-11-03T03:12:01.969Z,0
2018-11-03T03:13:02.241Z,0
2018-11-03T03:14:02.203Z,0
2018-11-03T03:15:02.166Z,0
2018-11-03T03:16:01.383Z,0
2018-11-03T03:17:01.626Z,0
2018-11-03T03:18:02.441Z,0
2018-11-03T03:19:02.129Z,0
2018-11-03T03:20:02.411Z,0
2018-11-03T03:21:02.365Z,0
2018-11-03T03:22:02.354Z,0
2018-11-03T03:23:02.070Z,0
2018-11-03T03:24:02.069Z,0
2018-11-03T03:25:01.787Z,0
2018-11-03T03:26:02.580Z,0
2018-11-03T03:27:02.062Z,0
2018-11-03T03:28:02.002Z,0
2018-11-03T03:29:02.519Z,0
2018-11-03T03:30:01.992Z,0
2018-11-03T03:31:01.708Z,0
2018-11-03T03:32:01.729Z,0
2018-11-03T03:33:01.685Z,0
2018-11-03T03:34:01.661Z,0
2018-11-03T03:35:02.639Z,0
2018-11-03T03:36:01.899Z,0
2018-11-03T03:37:01.891Z,0
2018-11-03T03:38:01.702Z,0
2018-11-03T03:39:01.856Z,0
2018-11-03T03:40:01.323Z,0
2018-11-03T03:41:01.302Z,0
2018-11-03T03:42:01.560Z,0
2018-11-03T03:43:01.535Z,0
2018-11-03T03:44:01.780Z,0
2018-11-03T03:45:01.514Z,0
2018-11-03T03:46:02.316Z,0
2018-11-03T03:47:02.011Z,0
2018-11-03T03:48:01.998Z,0
2018-11-03T03:49:01.195Z,0
2018-11-03T03:50:02.008Z,0
2018-11-03T03:51:01.705Z,0
2018-11-03T03:52:01.936Z,0
2018-11-03T03:53:01.407Z,0
2018-11-03T03:54:01.659Z,0
2018-11-03T03:55:01.763Z,0
2018-11-03T03:56:01.630Z,0
2018-11-03T03:57:01.078Z,0
2018-11-03T03:58:01.621Z,0
2018-11-03T03:59:01.571Z,0
2018-11-03T04:00:01.039Z,0
2018-11-03T04:01:01.567Z,0
2018-11-03T04:02:01.293Z,0
2018-11-03T04:03:01.541Z,0
2018-11-03T04:04:01.516Z,0
2018-11-03T04:05:01.806Z,0
2018-11-03T04:06:01.485Z,0
2018-11-03T04:07:00.938Z,0
2018-11-03T04:08:01.459Z,0
2018-11-03T04:09:01.184Z,0
2018-11-03T04:10:01.709Z,0
2018-11-03T04:11:00.886Z,0
2018-11-03T04:12:01.132Z,0
2018-11-03T04:13:01.120Z,0
2018-11-03T04:14:01.296Z,0
2018-11-03T04:15:01.647Z,0
2018-11-03T04:16:01.348Z,0
2018-11-03T04:17:01.643Z,0
2018-11-03T04:18:01.638Z,0
2018-11-03T04:19:01.591Z,0
2018-11-03T04:20:01.577Z,0
2018-11-03T04:21:01.010Z,0
2018-11-03T04:22:01.255Z,0
2018-11-03T04:23:01.255Z,0
2018-11-03T04:24:01.524Z,0
2018-11-03T04:25:01.487Z,0
2018-11-03T04:26:01.472Z,0
2018-11-03T04:27:01.207Z,0
2018-11-03T04:28:00.920Z,0
2018-11-03T04:29:00.907Z,0
2018-11-03T04:30:01.420Z,0
2018-11-03T04:31:00.617Z,0
2018-11-03T04:32:00.867Z,0
2018-11-03T04:33:00.845Z,0
2018-11-03T04:34:01.362Z,0
2018-11-03T04:35:01.125Z,0
2018-11-03T04:36:01.072Z,0
2018-11-03T04:37:00.522Z,0
2018-11-03T04:38:01.315Z,0
2018-11-03T04:39:00.499Z,0
2018-11-03T04:40:01.015Z,0
2018-11-03T04:41:00.740Z,0
2018-11-03T04:42:00.462Z,0
2018-11-03T04:43:00.440Z,0
2018-11-03T04:44:01.769Z,0
2018-11-03T04:45:00.690Z,0
2018-11-03T04:46:01.205Z,0
2018-11-03T04:47:00.410Z,0
2018-11-03T04:48:01.176Z,0
2018-11-03T04:49:01.153Z,0
2018-11-03T04:50:00.878Z,0
2018-11-03T04:51:00.599Z,0
2018-11-03T04:52:00.584Z,0
2018-11-03T04:53:00.943Z,0
2018-11-03T04:54:01.124Z,0
2018-11-03T04:55:00.705Z,0
2018-11-03T04:56:00.790Z,0
2018-11-03T04:57:00.519Z,0
2018-11-03T04:58:00.803Z,0
2018-11-03T04:59:00.770Z,0
2018-11-03T05:00:01.005Z,0
2018-11-03T05:01:00.463Z,0
2018-11-03T05:02:00.460Z,0
2018-11-03T05:03:00.544Z,0
2018-11-03T05:04:01.184Z,0
2018-11-03T05:05:00.402Z,0
2018-11-03T05:06:00.387Z,0
2018-11-03T05:07:00.380Z,0
2018-11-03T05:08:00.099Z,0
2018-11-03T05:09:00.358Z,0
2018-11-03T05:10:00.336Z,0
2018-11-03T05:11:00.362Z,0
2018-11-03T05:12:00.828Z,0
2018-11-03T05:13:00.035Z,0
2018-11-03T05:14:01.331Z,0
2018-11-03T05:15:00.538Z,0
2018-11-03T05:16:00.260Z,0
2018-11-03T05:17:00.816Z,0
2018-11-03T05:18:00.495Z,0
2018-11-03T05:19:00.482Z,0
2018-11-03T05:20:00.758Z,0
2018-11-03T05:21:00.565Z,0
2018-11-03T05:22:00.182Z,0
2018-11-03T05:22:59.899Z,0
2018-11-03T05:24:01.358Z,0
2018-11-03T05:25:00.148Z,0
2018-11-03T05:26:00.724Z,0
2018-11-03T05:27:00.098Z,0
2018-11-03T05:27:59.830Z,0
2018-11-03T05:29:00.079Z,0
2018-11-03T05:30:00.328Z,0
2018-11-03T05:31:00.300Z,0
2018-11-03T05:32:00.319Z,0
2018-11-03T05:33:00.589Z,0
2018-11-03T05:34:00.464Z,0
2018-11-03T05:34:59.470Z,0
2018-11-03T05:35:59.979Z,0
2018-11-03T05:37:00.255Z,0
2018-11-03T05:37:59.955Z,0
2018-11-03T05:39:00.072Z,0
2018-11-03T05:40:00.451Z,0
2018-11-03T05:41:00.216Z,0
2018-11-03T05:41:59.899Z,0
2018-11-03T05:43:00.408Z,0
2018-11-03T05:44:00.477Z,0
2018-11-03T05:45:00.715Z,0
2018-11-03T05:46:00.365Z,0
2018-11-03T05:47:00.095Z,0
2018-11-03T05:48:00.402Z,0
2018-11-03T05:48:59.541Z,0
2018-11-03T05:50:00.052Z,0
2018-11-03T05:50:59.784Z,0
2018-11-03T05:52:00.037Z,0
2018-11-03T05:53:00.066Z,0
2018-11-03T05:54:00.757Z,0
2018-11-03T05:55:00.410Z,0
2018-11-03T05:55:59.986Z,0
2018-11-03T05:57:00.002Z,0
2018-11-03T05:58:00.230Z,0
2018-11-03T05:59:00.031Z,0
2018-11-03T05:59:59.651Z,0
2018-11-03T06:00:59.931Z,0
2018-11-03T06:01:59.620Z,0
2018-11-03T06:03:00.205Z,0
2018-11-03T06:04:00.158Z,0
2018-11-03T06:05:00.084Z,0
2018-11-03T06:05:59.301Z,0
2018-11-03T06:06:59.289Z,0
2018-11-03T06:07:59.009Z,0
2018-11-03T06:09:00.926Z,0
2018-11-03T06:10:00.038Z,5
2018-11-03T06:10:59.491Z,5
2018-11-03T06:11:59.777Z,5
2018-11-03T06:12:59.478Z,5
2018-11-03T06:13:59.712Z,5
2018-11-03T06:15:00.235Z,5
2018-11-03T06:15:59.163Z,5
2018-11-03T06:16:59.666Z,10
2018-11-03T06:17:59.665Z,10
2018-11-03T06:18:59.660Z,10
2018-11-03T06:19:59.098Z,15
2018-11-03T06:20:59.377Z,15
2018-11-03T06:21:59.350Z,15
2018-11-03T06:22:58.861Z,15
2018-11-03T06:24:00.101Z,15
2018-11-03T06:25:00.022Z,20
2018-11-03T06:25:59.277Z,20
2018-11-03T06:26:59.800Z,20
2018-11-03T06:27:59.875Z,25
2018-11-03T06:28:59.247Z,25
2018-11-03T06:29:59.491Z,25
2018-11-03T06:30:59.475Z,30
2018-11-03T06:31:59.754Z,30
2018-11-03T06:32:59.447Z,30
2018-11-03T06:33:59.653Z,30
2018-11-03T06:34:59.848Z,30
2018-11-03T06:35:59.677Z,35
2018-11-03T06:36:59.653Z,40
2018-11-03T06:37:59.390Z,40
2018-11-03T06:39:00.165Z,45
2018-11-03T06:39:59.087Z,45
2018-11-03T06:40:59.382Z,50
2018-11-03T06:41:59.352Z,50
2018-11-03T06:42:59.304Z,55
2018-11-03T06:43:59.738Z,55
2018-11-03T06:44:59.707Z,55
2018-11-03T06:45:59.304Z,55
2018-11-03T06:46:59.253Z,55
2018-11-03T06:47:58.745Z,55
2018-11-03T06:48:58.959Z,60
2018-11-03T06:49:58.720Z,60
2018-11-03T06:50:59.197Z,65
2018-11-03T06:51:59.214Z,65
2018-11-03T06:52:58.906Z,65
2018-11-03T06:53:58.893Z,65
2018-11-03T06:54:59.621Z,65
2018-11-03T06:55:58.892Z,65
2018-11-03T06:56:58.586Z,65
2018-11-03T06:57:59.099Z,60
2018-11-03T06:58:58.825Z,60
2018-11-03T06:59:59.073Z,65
2018-11-03T07:00:59.057Z,60
2018-11-03T07:01:58.523Z,60
2018-11-03T07:02:58.763Z,65
2018-11-03T07:03:59.018Z,65
2018-11-03T07:04:59.383Z,65
2018-11-03T07:05:59.266Z,60
2018-11-03T07:06:58.982Z,60
2018-11-03T07:07:58.703Z,55
2018-11-03T07:08:59.214Z,55
2018-11-03T07:09:58.952Z,50
2018-11-03T07:10:58.991Z,50
2018-11-03T07:11:59.344Z,50
2018-11-03T07:12:59.776Z,50
2018-11-03T07:13:58.618Z,55
2018-11-03T07:14:58.543Z,55
2018-11-03T07:15:58.589Z,55
2018-11-03T07:16:58.855Z,50
2018-11-03T07:17:59.083Z,55
2018-11-03T07:18:58.809Z,55
2018-11-03T07:19:58.278Z,60
2018-11-03T07:20:58.788Z,60
2018-11-03T07:21:59.399Z,60
2018-11-03T07:22:58.760Z,60
2018-11-03T07:23:58.539Z,60
2018-11-03T07:24:58.472Z,65
2018-11-03T07:25:58.192Z,65
2018-11-03T07:26:58.478Z,65
2018-11-03T07:27:58.436Z,65
2018-11-03T07:28:58.148Z,65
2018-11-03T07:29:59.697Z,65
2018-11-03T07:30:58.127Z,65
2018-11-03T07:31:58.699Z,65
2018-11-03T07:32:58.626Z,65
2018-11-03T07:33:58.082Z,65
2018-11-03T07:34:58.333Z,75
2018-11-03T07:35:58.321Z,70
2018-11-03T07:36:58.301Z,70
2018-11-03T07:37:58.308Z,70
2018-11-03T07:38:58.821Z,70
2018-11-03T07:39:58.808Z,70
2018-11-03T07:40:58.539Z,75
2018-11-03T07:41:58.524Z,75
2018-11-03T07:42:59.059Z,85
2018-11-03T07:43:58.555Z,90
2018-11-03T07:44:58.197Z,90
2018-11-03T07:45:58.461Z,85
2018-11-03T07:46:58.170Z,80
2018-11-03T07:47:58.588Z,75
2018-11-03T07:48:58.904Z,75
2018-11-03T07:49:58.174Z,65
2018-11-03T07:50:58.163Z,70
2018-11-03T07:51:58.628Z,65
2018-11-03T07:52:59.184Z,70
2018-11-03T07:53:58.139Z,65
2018-11-03T07:54:58.439Z,65
2018-11-03T07:55:58.602Z,65
2018-11-03T07:56:58.308Z,70
2018-11-03T07:57:58.617Z,70
2018-11-03T07:58:58.297Z,80
2018-11-03T07:59:58.535Z,85
2018-11-03T08:00:58.261Z,80
2018-11-03T08:01:58.246Z,85
2018-11-03T08:02:58.757Z,90
2018-11-03T08:03:57.685Z,85
2018-11-03T08:04:58.198Z,80
2018-11-03T08:05:58.442Z,80
2018-11-03T08:06:57.911Z,85
2018-11-03T08:07:58.185Z,90
2018-11-03T08:08:58.569Z,85
2018-11-03T08:09:58.132Z,75
2018-11-03T08:10:58.378Z,70
2018-11-03T08:11:58.590Z,70
2018-11-03T08:12:57.569Z,70
2018-11-03T08:13:57.810Z,65
2018-11-03T08:14:57.812Z,65
2018-11-03T08:15:58.974Z,75
2018-11-03T08:16:57.791Z,75
2018-11-03T08:17:58.445Z,80
2018-11-03T08:18:57.551Z,80
2018-11-03T08:19:57.724Z,75
2018-11-03T08:20:57.995Z,75
2018-11-03T08:21:58.276Z,70
2018-11-03T08:22:58.256Z,80
2018-11-03T08:23:58.522Z,80
2018-11-03T08:24:58.200Z,80
2018-11-03T08:25:58.277Z,90
2018-11-03T08:26:57.583Z,100
2018-11-03T08:27:58.150Z,90
2018-11-03T08:28:58.170Z,90
2018-11-03T08:29:57.860Z,95
2018-11-03T08:30:57.850Z,105
2018-11-03T08:31:57.660Z,110
2018-11-03T08:32:58.082Z,100
2018-11-03T08:33:57.803Z,95
2018-11-03T08:34:57.804Z,100
2018-11-03T08:35:57.368Z,120
2018-11-03T08:36:57.806Z,125
2018-11-03T08:37:58.071Z,125
2018-11-03T08:38:57.903Z,115
2018-11-03T08:39:57.466Z,115
2018-11-03T08:40:57.976Z,125
2018-11-03T08:41:57.928Z,140
2018-11-03T08:42:57.757Z,130
2018-11-03T08:43:57.805Z,125
2018-11-03T08:44:57.467Z,125
2018-11-03T08:45:57.969Z,135
2018-11-03T08:46:57.643Z,130
2018-11-03T08:47:57.465Z,135
2018-11-03T08:48:57.777Z,140
2018-11-03T08:49:57.340Z,145
2018-11-03T08:50:57.595Z,150
2018-11-03T08:51:57.887Z,170
2018-11-03T08:52:57.544Z,185
2018-11-03T08:53:57.282Z,170
2018-11-03T08:54:57.269Z,185
2018-11-03T08:55:57.520Z,180
2018-11-03T08:56:57.566Z,195
2018-11-03T08:57:57.778Z,185
2018-11-03T08:58:57.492Z,175
2018-11-03T08:59:59.179Z,155
2018-11-03T09:00:56.924Z,155
2018-11-03T09:01:57.183Z,160
2018-11-03T09:02:57.494Z,160
2018-11-03T09:03:57.489Z,155
2018-11-03T09:04:57.137Z,170
2018-11-03T09:05:57.394Z,175
2018-11-03T09:06:57.401Z,170
2018-11-03T09:07:57.638Z,175
2018-11-03T09:08:57.092Z,180
2018-11-03T09:09:57.427Z,175
2018-11-03T09:10:56.804Z,175
2018-11-03T09:11:57.054Z,175
2018-11-03T09:12:58.055Z,180
2018-11-03T09:13:57.296Z,180
2018-11-03T09:14:57.733Z,180
2018-11-03T09:15:57.267Z,180
2018-11-03T09:16:56.724Z,185
2018-11-03T09:17:57.263Z,185
2018-11-03T09:18:57.226Z,195
2018-11-03T09:19:57.205Z,200
2018-11-03T09:20:57.464Z,200
2018-11-03T09:21:57.392Z,205
2018-11-03T09:22:57.237Z,205
2018-11-03T09:23:57.426Z,220
2018-11-03T09:24:56.889Z,220
2018-11-03T09:25:57.625Z,220
2018-11-03T09:26:57.421Z,220
2018-11-03T09:27:57.386Z,215
2018-11-03T09:28:57.368Z,220
2018-11-03T09:29:57.369Z,210
2018-11-03T09:30:57.115Z,210
2018-11-03T09:31:57.022Z,210
2018-11-03T09:32:57.644Z,210
2018-11-03T09:33:57.783Z,210
2018-11-03T09:34:56.968Z,210
2018-11-03T09:35:57.016Z,210
2018-11-03T09:36:57.277Z,210
2018-11-03T09:37:57.287Z,210
2018-11-03T09:38:57.687Z,210
2018-11-03T09:39:56.984Z,215
2018-11-03T09:40:56.957Z,215
2018-11-03T09:41:56.675Z,220
2018-11-03T09:42:57.732Z,225
2018-11-03T09:43:56.765Z,225
2018-11-03T09:44:56.757Z,230
2018-11-03T09:45:56.631Z,230
2018-11-03T09:46:56.617Z,220
2018-11-03T09:47:57.181Z,215
2018-11-03T09:48:56.607Z,215
2018-11-03T09:49:56.586Z,220
2018-11-03T09:50:57.230Z,215
2018-11-03T09:51:56.829Z,205
2018-11-03T09:52:56.816Z,185
2018-11-03T09:53:56.813Z,185
2018-11-03T09:54:56.525Z,195
2018-11-03T09:55:56.809Z,205
2018-11-03T09:56:57.054Z,210
2018-11-03T09:57:56.753Z,215
2018-11-03T09:58:56.582Z,210
2018-11-03T09:59:56.460Z,205
2018-11-03T10:00:56.711Z,200
2018-11-03T10:01:56.192Z,210
2018-11-03T10:02:56.963Z,210
2018-11-03T10:03:56.433Z,220
2018-11-03T10:04:56.675Z,225
2018-11-03T10:05:56.957Z,225
2018-11-03T10:06:56.661Z,235
2018-11-03T10:07:56.377Z,235
2018-11-03T10:08:56.628Z,235
2018-11-03T10:09:56.352Z,235
2018-11-03T10:10:56.875Z,245
2018-11-03T10:11:56.892Z,245
2018-11-03T10:12:56.846Z,245
2018-11-03T10:13:57.078Z,245
2018-11-03T10:14:56.868Z,245
2018-11-03T10:15:57.024Z,245
2018-11-03T10:16:56.539Z,245
2018-11-03T10:17:56.785Z,250
2018-11-03T10:18:55.985Z,250
2018-11-03T10:19:56.502Z,245
2018-11-03T10:20:56.746Z,245
2018-11-03T10:21:56.482Z,240
2018-11-03T10:22:56.185Z,245
2018-11-03T10:23:56.477Z,235
2018-11-03T10:24:55.651Z,230
2018-11-03T10:25:56.167Z,230
2018-11-03T10:26:56.164Z,230
2018-11-03T10:27:56.144Z,220
2018-11-03T10:28:56.144Z,215
2018-11-03T10:29:56.646Z,205
2018-11-03T10:30:56.115Z,200
2018-11-03T10:31:56.094Z,205
2018-11-03T10:32:56.393Z,200
2018-11-03T10:33:57.391Z,190
2018-11-03T10:34:56.796Z,190
2018-11-03T10:35:56.324Z,195
2018-11-03T10:36:56.370Z,185
2018-11-03T10:37:56.366Z,190
2018-11-03T10:38:56.279Z,200
2018-11-03T10:39:56.283Z,200
2018-11-03T10:40:56.014Z,200
2018-11-03T10:41:55.724Z,205
2018-11-03T10:42:56.516Z,195
2018-11-03T10:43:56.987Z,190
2018-11-03T10:44:56.484Z,205
2018-11-03T10:45:56.012Z,200
2018-11-03T10:46:55.932Z,195
2018-11-03T10:47:56.177Z,190
2018-11-03T10:48:56.167Z,175
2018-11-03T10:49:56.162Z,190
2018-11-03T10:50:56.153Z,195
2018-11-03T10:51:56.427Z,210
2018-11-03T10:52:56.131Z,215
2018-11-03T10:53:56.734Z,220
2018-11-03T10:54:56.906Z,220
2018-11-03T10:55:56.369Z,220
2018-11-03T10:56:56.078Z,230
2018-11-03T10:57:55.810Z,235
2018-11-03T10:58:55.810Z,230
2018-11-03T10:59:55.518Z,225
2018-11-03T11:00:56.066Z,220
2018-11-03T11:01:55.771Z,220
2018-11-03T11:02:55.773Z,225
2018-11-03T11:03:56.430Z,225
2018-11-03T11:04:55.457Z,230
2018-11-03T11:05:56.021Z,230
2018-11-03T11:06:55.709Z,225
2018-11-03T11:07:55.956Z,225
2018-11-03T11:08:55.696Z,220
2018-11-03T11:09:56.209Z,215
2018-11-03T11:10:55.704Z,215
2018-11-03T11:11:56.167Z,225
2018-11-03T11:12:55.915Z,225
2018-11-03T11:13:56.270Z,220
2018-11-03T11:14:56.081Z,220
2018-11-03T11:15:56.270Z,220
2018-11-03T11:16:56.657Z,220
2018-11-03T11:17:55.333Z,215
2018-11-03T11:18:55.837Z,215
2018-11-03T11:19:55.300Z,215
2018-11-03T11:20:55.825Z,215
2018-11-03T11:21:55.794Z,210
2018-11-03T11:22:55.535Z,185
2018-11-03T11:23:56.464Z,185
2018-11-03T11:24:56.561Z,195
2018-11-03T11:25:55.255Z,200
2018-11-03T11:26:55.537Z,205
2018-11-03T11:27:55.736Z,200
2018-11-03T11:28:55.849Z,195
2018-11-03T11:29:55.450Z,190
2018-11-03T11:30:55.715Z,190
2018-11-03T11:31:55.432Z,195
2018-11-03T11:32:55.783Z,180
2018-11-03T11:33:55.946Z,160
2018-11-03T11:34:55.318Z,155
2018-11-03T11:35:55.420Z,170
2018-11-03T11:36:55.643Z,180
2018-11-03T11:37:55.384Z,185
2018-11-03T11:38:55.625Z,170
2018-11-03T11:39:55.610Z,150
2018-11-03T11:40:55.326Z,135
2018-11-03T11:41:55.584Z,130
2018-11-03T11:42:55.446Z,140
2018-11-03T11:43:55.565Z,140
2018-11-03T11:44:55.645Z,145
2018-11-03T11:45:55.843Z,165
2018-11-03T11:46:55.530Z,175
2018-11-03T11:47:55.515Z,170
2018-11-03T11:48:55.762Z,165
2018-11-03T11:49:55.759Z,150
2018-11-03T11:50:55.550Z,145
2018-11-03T11:51:55.728Z,150
2018-11-03T11:52:55.206Z,140
2018-11-03T11:53:55.457Z,135
2018-11-03T11:54:55.658Z,135
2018-11-03T11:55:55.778Z,135
2018-11-03T11:56:55.174Z,135
2018-11-03T11:57:55.144Z,135
2018-11-03T11:58:55.130Z,140
2018-11-03T11:59:54.859Z,145
2018-11-03T12:00:55.627Z,155
2018-11-03T12:01:54.833Z,155
2018-11-03T12:02:55.767Z,155
2018-11-03T12:03:55.697Z,155
2018-11-03T12:04:55.324Z,150
2018-11-03T12:05:55.104Z,145
2018-11-03T12:06:54.775Z,150
2018-11-03T12:07:55.543Z,145
2018-11-03T12:08:55.276Z,140
2018-11-03T12:09:55.565Z,135
2018-11-03T12:10:54.989Z,135
2018-11-03T12:11:55.242Z,135
2018-11-03T12:12:55.490Z,135
2018-11-03T12:13:54.910Z,135
2018-11-03T12:14:54.949Z,140
2018-11-03T12:15:54.790Z,145
2018-11-03T12:16:55.181Z,145
2018-11-03T12:17:54.923Z,145
2018-11-03T12:18:54.638Z,145
2018-11-03T12:19:54.885Z,140
2018-11-03T12:20:54.941Z,135
2018-11-03T12:21:54.860Z,135
2018-11-03T12:22:54.856Z,135
2018-11-03T12:23:55.475Z,135
2018-11-03T12:24:55.263Z,135
2018-11-03T12:25:55.466Z,140
2018-11-03T12:26:55.079Z,145
2018-11-03T12:27:55.061Z,145
2018-11-03T12:28:55.332Z,150
2018-11-03T12:29:55.044Z,150
2018-11-03T12:30:55.089Z,150
2018-11-03T12:31:55.020Z,145
2018-11-03T12:32:55.312Z,145
2018-11-03T12:33:54.500Z,145
2018-11-03T12:34:55.260Z,145
2018-11-03T12:35:54.436Z,140
2018-11-03T12:36:54.973Z,150
2018-11-03T12:37:55.246Z,145
2018-11-03T12:38:54.947Z,145
2018-11-03T12:39:55.206Z,150
2018-11-03T12:40:55.191Z,150
2018-11-03T12:41:55.191Z,145
2018-11-03T12:42:54.881Z,130
2018-11-03T12:43:55.377Z,135
2018-11-03T12:44:54.595Z,125
2018-11-03T12:45:54.583Z,130
2018-11-03T12:46:54.873Z,135
2018-11-03T12:47:54.617Z,130
2018-11-03T12:48:54.913Z,130
2018-11-03T12:49:54.561Z,140
2018-11-03T12:50:54.817Z,145
2018-11-03T12:51:55.037Z,150
2018-11-03T12:52:54.774Z,160
2018-11-03T12:53:55.113Z,140
2018-11-03T12:54:55.060Z,130
2018-11-03T12:55:54.474Z,130
2018-11-03T12:56:54.721Z,130
2018-11-03T12:57:54.980Z,145
2018-11-03T12:58:54.702Z,150
2018-11-03T12:59:54.722Z,140
2018-11-03T13:00:54.936Z,155
2018-11-03T13:01:54.395Z,150
2018-11-03T13:02:54.384Z,150
2018-11-03T13:03:55.162Z,145
2018-11-03T13:04:54.847Z,140
2018-11-03T13:05:54.675Z,140
2018-11-03T13:06:54.887Z,140
2018-11-03T13:07:54.586Z,125
2018-11-03T13:08:54.578Z,125
2018-11-03T13:09:54.986Z,130
2018-11-03T13:10:54.019Z,130
2018-11-03T13:11:54.061Z,130
2018-11-03T13:12:54.514Z,125
2018-11-03T13:13:54.764Z,125
2018-11-03T13:14:54.487Z,125
2018-11-03T13:15:54.718Z,130
2018-11-03T13:16:54.202Z,125
2018-11-03T13:17:54.448Z,120
2018-11-03T13:18:54.558Z,115
2018-11-03T13:19:54.186Z,105
2018-11-03T13:20:54.447Z,95
2018-11-03T13:21:54.405Z,90
2018-11-03T13:22:55.501Z,85
2018-11-03T13:23:54.154Z,80
2018-11-03T13:24:53.853Z,70
2018-11-03T13:25:54.663Z,65
2018-11-03T13:26:54.086Z,60
2018-11-03T13:27:54.334Z,60
2018-11-03T13:28:54.320Z,55
2018-11-03T13:29:54.775Z,60
2018-11-03T13:30:54.607Z,60
2018-11-03T13:31:54.285Z,60
2018-11-03T13:32:54.293Z,60
2018-11-03T13:33:53.999Z,55
2018-11-03T13:34:54.194Z,55
2018-11-03T13:35:54.241Z,50
2018-11-03T13:36:53.706Z,45
2018-11-03T13:37:54.213Z,50
2018-11-03T13:38:54.208Z,50
2018-11-03T13:39:54.200Z,45
2018-11-03T13:40:53.865Z,45
2018-11-03T13:41:53.903Z,45
2018-11-03T13:42:53.890Z,50
2018-11-03T13:43:53.878Z,45
2018-11-03T13:44:53.670Z,45
2018-11-03T13:45:53.859Z,45
2018-11-03T13:46:54.366Z,40
2018-11-03T13:47:54.179Z,45
2018-11-03T13:48:53.820Z,45
2018-11-03T13:49:53.807Z,45
2018-11-03T13:50:54.057Z,45
2018-11-03T13:51:53.780Z,45
2018-11-03T13:52:53.766Z,50
2018-11-03T13:53:53.759Z,45
2018-11-03T13:54:54.007Z,45
2018-11-03T13:55:53.989Z,45
2018-11-03T13:56:54.287Z,40
2018-11-03T13:57:53.969Z,40
2018-11-03T13:58:53.958Z,40
2018-11-03T13:59:53.942Z,40
2018-11-03T14:00:53.929Z,40
2018-11-03T14:01:53.661Z,40
2018-11-03T14:02:54.172Z,40
2018-11-03T14:03:53.894Z,40
2018-11-03T14:04:54.144Z,35
2018-11-03T14:05:53.867Z,35
2018-11-03T14:06:53.339Z,40
2018-11-03T14:07:53.848Z,35
2018-11-03T14:08:54.089Z,35
2018-11-03T14:09:54.082Z,35
2018-11-03T14:10:53.556Z,35
2018-11-03T14:11:54.053Z,30
2018-11-03T14:12:53.272Z,30
2018-11-03T14:13:53.767Z,30
2018-11-03T14:14:53.493Z,35
2018-11-03T14:15:53.789Z,35
2018-11-03T14:16:53.734Z,35
2018-11-03T14:17:53.459Z,35